Time;durP1;ratioP1;P1;durP2;ratioP2;P2;SDS_P1;SDS_P2;PMS_P1;PMS_P2;Temp;Humidity;BMP_temperature;BMP_pressure;BME280_temperature;BME280_humidity;BME280_pressure;Samples;Min_cycle;Max_cycle;Signal;HPM_P1;HPM_P2
2023/12/02 00:00:40;;;;;;;7.03;1.83;;;;;;;18.66;42.81;97983.66;5013980;28;20064;-83
2023/12/02 00:03:28;;;;;;;11.85;1.88;;;;;;;18.66;42.79;97972.09;5013631;28;20065;-82
2023/12/02 00:06:14;;;;;;;6.80;1.80;;;;;;;18.68;42.98;97980.66;5013587;28;20069;-83
2023/12/02 00:09:00;;;;;;;10.43;2.33;;;;;;;18.49;42.98;97995.16;5020188;28;20056;-81
2023/12/02 00:11:50;;;;;;;10.77;2.55;;;;;;;18.70;42.36;97967.66;5020212;28;20052;-83
2023/12/02 00:14:37;;;;;;;9.18;1.88;;;;;;;18.76;42.27;97960.28;5019617;28;20116;-82
2023/12/02 00:17:25;;;;;;;12.63;1.98;;;;;;;19.03;42.12;97961.91;5013206;28;20052;-82
2023/12/02 00:20:13;;;;;;;10.57;2.28;;;;;;;18.82;42.51;97964.41;5014986;28;20494;-81
2023/12/02 00:23:00;;;;;;;8.43;2.65;;;;;;;18.73;42.34;97945.53;5016304;28;20153;-79
2023/12/02 00:25:49;;;;;;;20.85;4.43;;;;;;;18.51;43.02;97951.78;5016269;28;20056;-81
2023/12/02 00:28:35;;;;;;;20.27;4.43;;;;;;;18.29;43.67;97957.25;5030016;28;20068;-83
2023/12/02 00:31:20;;;;;;;16.90;3.47;;;;;;;18.47;43.13;97950.84;5023754;28;20510;-82
2023/12/02 00:34:06;;;;;;;11.75;2.90;;;;;;;18.70;42.20;97932.69;5016514;28;20049;-83
2023/12/02 00:36:55;;;;;;;20.13;4.60;;;;;;;18.61;42.84;97946.13;5016858;28;20049;-82
2023/12/02 00:39:44;;;;;;;15.35;3.28;;;;;;;18.68;42.41;97945.69;5019888;28;20057;-82
2023/12/02 00:42:30;;;;;;;8.13;1.73;;;;;;;18.71;41.83;97940.47;5021974;28;20052;-82
2023/12/02 00:45:16;;;;;;;14.82;3.25;;;;;;;18.92;41.12;97950.63;5026032;28;20053;-81
2023/12/02 00:48:02;;;;;;;11.75;1.83;;;;;;;19.03;41.13;97962.69;5017061;28;20049;-83
2023/12/02 00:50:49;;;;;;;11.55;2.40;;;;;;;18.87;41.83;97983.88;5023428;28;20056;-84
2023/12/02 00:53:35;;;;;;;12.98;2.35;;;;;;;18.80;41.00;97953.16;5016632;28;20048;-83
2023/12/02 00:56:23;;;;;;;5.43;1.73;;;;;;;19.03;40.74;97969.97;5015864;28;20069;-83
2023/12/02 00:59:09;;;;;;;8.00;2.03;;;;;;;19.14;40.37;97945.09;5015456;28;20117;-81
2023/12/02 01:01:55;;;;;;;6.97;1.88;;;;;;;19.02;41.18;97952.22;5036149;28;20419;-83
2023/12/02 01:04:40;;;;;;;11.50;2.00;;;;;;;18.69;41.81;97939.97;5023383;28;20061;-82
2023/12/02 01:07:26;;;;;;;8.57;1.70;;;;;;;18.55;42.51;97946.56;5029388;28;20053;-82
2023/12/02 01:10:15;;;;;;;9.30;2.13;;;;;;;18.72;42.03;97963.59;5016835;28;20068;-82
2023/12/02 01:13:02;;;;;;;7.93;1.65;;;;;;;18.63;41.90;97970.81;5016962;28;20487;-84
2023/12/02 01:15:49;;;;;;;9.63;1.48;;;;;;;18.68;41.50;97945.69;5017663;28;20117;-82
2023/12/02 01:18:34;;;;;;;9.48;2.10;;;;;;;18.58;42.28;97954.03;5009467;28;20056;-85
2023/12/02 01:21:20;;;;;;;15.35;2.42;;;;;;;18.60;42.23;97939.16;5021912;28;20131;-82
2023/12/02 01:24:07;;;;;;;8.75;1.90;;;;;;;18.91;40.93;97941.78;5015218;28;20045;-82
2023/12/02 01:26:54;;;;;;;9.88;1.77;;;;;;;18.98;41.03;97962.84;5015254;28;20506;-83
2023/12/02 01:29:43;;;;;;;10.40;1.75;;;;;;;18.92;41.04;97964.88;5016627;28;20056;-83
2023/12/02 01:32:32;;;;;;;11.05;1.83;;;;;;;18.79;40.62;97970.41;5015292;28;20061;-83
2023/12/02 01:35:21;;;;;;;9.45;1.75;;;;;;;18.64;42.39;97974.28;5008178;28;20076;-81
2023/12/02 01:38:08;;;;;;;11.15;1.55;;;;;;;18.84;40.66;97968.38;5007770;28;20049;-83
2023/12/02 01:40:55;;;;;;;7.10;1.40;;;;;;;18.86;40.91;97949.19;5016166;28;20057;-82
2023/12/02 01:43:45;;;;;;;10.88;2.25;;;;;;;18.67;40.83;97950.25;5022736;28;20049;-83
2023/12/02 01:46:30;;;;;;;10.50;2.38;;;;;;;18.84;40.57;97927.22;5014861;28;20062;-81
2023/12/02 01:49:17;;;;;;;8.23;1.70;;;;;;;19.03;40.01;97933.06;5014968;28;20403;-81
2023/12/02 01:52:02;;;;;;;9.65;1.77;;;;;;;19.01;39.91;97935.28;5014540;28;20053;-82
2023/12/02 01:54:47;;;;;;;9.85;1.67;;;;;;;18.87;40.37;97946.22;5021426;28;20049;-84
2023/12/02 01:57:33;;;;;;;8.77;1.90;;;;;;;18.80;39.90;97945.06;5007538;28;20040;-81
2023/12/02 02:00:19;;;;;;;7.65;1.50;;;;;;;18.92;39.88;97927.19;5013722;28;20049;-82
2023/12/02 02:03:04;;;;;;;12.63;2.30;;;;;;;18.82;39.61;97894.44;5015313;28;20522;-84
2023/12/02 02:05:50;;;;;;;9.52;1.90;;;;;;;18.66;40.40;97913.69;5015233;28;20053;-81
2023/12/02 02:08:36;;;;;;;7.90;1.92;;;;;;;18.62;39.93;97920.03;5014417;28;20072;-82
2023/12/02 02:11:23;;;;;;;13.90;1.83;;;;;;;18.73;39.68;97914.03;5014360;28;20064;-83
2023/12/02 02:14:10;;;;;;;12.65;1.60;;;;;;;18.83;39.52;97912.94;5007022;28;20053;-83
2023/12/02 02:16:55;;;;;;;8.48;1.67;;;;;;;18.75;39.72;97908.34;5014285;28;20061;-83
2023/12/02 02:19:41;;;;;;;11.10;1.67;;;;;;;18.56;40.25;97897.06;5021396;28;20049;-83
2023/12/02 02:22:26;;;;;;;10.52;1.45;;;;;;;18.48;39.53;97888.63;5015467;28;20048;-83
2023/12/02 02:25:12;;;;;;;7.65;1.83;;;;;;;18.61;39.42;97895.00;5021727;28;20057;-82
2023/12/02 02:27:57;;;;;;;11.23;1.85;;;;;;;18.81;39.05;97876.69;5020726;28;20053;-84
2023/12/02 02:30:43;;;;;;;10.23;1.73;;;;;;;18.59;39.57;97870.31;5015024;28;20053;-84
2023/12/02 02:33:31;;;;;;;10.35;2.13;;;;;;;18.52;39.54;97848.47;5015063;28;20057;-84
2023/12/02 02:36:18;;;;;;;10.32;2.03;;;;;;;18.61;39.27;97829.63;5020747;28;20041;-84
2023/12/02 02:39:03;;;;;;;10.50;1.70;;;;;;;18.91;38.27;97839.47;5018665;28;20049;-83
2023/12/02 02:41:49;;;;;;;11.93;2.97;;;;;;;18.37;40.40;97824.72;5037997;28;20048;-82
2023/12/02 02:44:36;;;;;;;10.73;1.95;;;;;;;18.03;40.78;97835.09;5030388;28;20048;-82
2023/12/02 02:47:21;;;;;;;9.13;1.65;;;;;;;17.97;40.61;97843.59;5014529;28;20061;-84
2023/12/02 02:50:08;;;;;;;9.75;1.67;;;;;;;18.47;38.95;97838.66;5020146;28;20061;-85
2023/12/02 02:52:54;;;;;;;9.95;1.92;;;;;;;18.32;39.38;97854.44;5014540;28;20052;-83
2023/12/02 02:55:40;;;;;;;9.50;1.65;;;;;;;18.39;38.43;97860.94;5013357;28;20065;-82
2023/12/02 02:58:28;;;;;;;8.52;1.88;;;;;;;18.62;38.34;97844.69;5014599;28;20057;-84
2023/12/02 03:01:16;;;;;;;5.70;1.83;;;;;;;18.18;39.31;97847.31;5006240;28;20052;-82
2023/12/02 03:04:01;;;;;;;8.15;1.55;;;;;;;18.80;36.64;97810.50;5014274;28;20064;-84
2023/12/02 03:06:46;;;;;;;6.15;1.90;;;;;;;18.47;38.20;97809.06;5006254;28;20064;-83
2023/12/02 03:09:31;;;;;;;10.90;1.80;;;;;;;18.62;37.33;97777.44;5027190;28;20049;-82
2023/12/02 03:12:17;;;;;;;7.55;1.60;;;;;;;18.44;37.34;97779.31;5014377;28;20057;-82
2023/12/02 03:15:03;;;;;;;17.20;2.70;;;;;;;18.34;38.14;97803.84;5005956;28;20068;-82
2023/12/02 03:17:49;;;;;;;9.82;1.73;;;;;;;17.88;39.51;97856.22;5006324;28;20390;-84
2023/12/02 03:20:35;;;;;;;85.20;45.70;;;;;;;17.70;39.75;97852.63;5013993;28;20403;-82
2023/12/02 03:23:22;;;;;;;13.50;4.60;;;;;;;17.86;37.90;97864.56;5014003;28;20053;-84
2023/12/02 03:26:08;;;;;;;10.32;2.05;;;;;;;18.08;37.77;97873.66;5020676;28;20060;-84
2023/12/02 03:28:54;;;;;;;10.30;1.77;;;;;;;18.11;37.64;97848.84;5012924;28;20049;-84
2023/12/02 03:31:39;;;;;;;10.68;1.83;;;;;;;18.26;36.79;97822.31;5013817;28;20053;-82
2023/12/02 03:34:25;;;;;;;12.60;1.50;;;;;;;18.01;37.67;97821.16;5020376;28;20388;-82
2023/12/02 03:37:13;;;;;;;8.25;1.60;;;;;;;17.68;38.80;97826.09;5014008;28;20041;-82
2023/12/02 03:40:00;;;;;;;5.43;1.63;;;;;;;17.84;37.89;97839.94;5013046;28;20502;-84
2023/12/02 03:42:46;;;;;;;9.75;1.63;;;;;;;18.03;36.41;97827.03;5020762;28;20490;-84
2023/12/02 03:45:31;;;;;;;8.57;1.75;;;;;;;17.91;36.87;97815.28;5013007;28;20052;-84
2023/12/02 03:48:17;;;;;;;8.15;1.42;;;;;;;17.79;37.30;97818.56;5013767;28;20384;-84
2023/12/02 03:51:04;;;;;;;11.30;1.60;;;;;;;17.53;38.11;97827.28;5026867;28;20057;-82
2023/12/02 03:53:49;;;;;;;12.07;1.55;;;;;;;17.30;37.78;97828.44;5026804;28;20078;-84
2023/12/02 03:56:35;;;;;;;9.55;2.03;;;;;;;17.37;37.72;97834.16;5018173;28;20064;-82
2023/12/02 03:59:21;;;;;;;14.95;2.22;;;;;;;17.41;38.23;97828.94;5016915;28;20057;-84
2023/12/02 04:02:08;;;;;;;12.45;2.60;;;;;;;17.30;38.24;97855.28;5017824;28;20057;-82
2023/12/02 04:04:54;;;;;;;9.13;2.10;;;;;;;17.06;38.64;97858.28;5036977;28;20057;-82
2023/12/02 04:07:40;;;;;;;10.35;2.15;;;;;;;16.92;38.85;97871.72;5022117;28;20049;-83
2023/12/02 04:10:25;;;;;;;10.52;2.03;;;;;;;17.02;38.18;97892.19;5009667;28;20403;-83
2023/12/02 04:13:11;;;;;;;10.02;1.67;;;;;;;16.91;38.65;97888.94;5024293;28;20056;-82
2023/12/02 04:15:56;;;;;;;7.07;1.48;;;;;;;17.02;38.46;97887.63;5029566;28;20049;-83
2023/12/02 04:18:42;;;;;;;8.40;1.67;;;;;;;17.19;38.36;97895.00;5031312;28;20044;-83
2023/12/02 04:21:28;;;;;;;9.00;2.05;;;;;;;17.07;38.87;97875.94;5036373;28;20044;-82
2023/12/02 04:24:13;;;;;;;11.07;2.17;;;;;;;17.06;38.55;97893.94;5023485;28;20053;-83
2023/12/02 04:27:01;;;;;;;13.05;2.00;;;;;;;17.15;37.39;97877.13;5020831;28;20049;-83
2023/12/02 04:29:48;;;;;;;9.05;1.75;;;;;;;17.38;36.97;97875.22;5023629;28;20056;-83
2023/12/02 04:32:34;;;;;;;10.18;2.20;;;;;;;17.17;38.54;97872.22;5017511;28;20057;-82
2023/12/02 04:35:20;;;;;;;20.10;1.50;;;;;;;17.07;38.38;97871.38;5016894;28;20049;-84
2023/12/02 04:38:05;;;;;;;12.07;2.17;;;;;;;17.33;37.60;97868.09;5015655;28;20404;-83
2023/12/02 04:40:51;;;;;;;8.88;1.63;;;;;;;17.35;37.24;97855.13;5017334;28;20049;-83
2023/12/02 04:43:39;;;;;;;10.07;2.08;;;;;;;17.22;37.60;97839.91;5016803;28;20048;-83
2023/12/02 04:46:25;;;;;;;11.60;1.90;;;;;;;17.48;37.49;97854.25;5029812;28;20060;-82
2023/12/02 04:49:13;;;;;;;7.00;1.48;;;;;;;17.28;38.21;97847.53;5036040;28;20069;-83
2023/12/02 04:52:00;;;;;;;7.75;1.70;;;;;;;17.15;38.35;97839.53;5023309;28;20064;-83
2023/12/02 04:54:49;;;;;;;9.70;1.63;;;;;;;17.40;37.20;97849.66;5016894;28;20069;-83
2023/12/02 04:57:36;;;;;;;7.97;1.45;;;;;;;17.17;38.82;97826.59;5015765;28;20053;-81
2023/12/02 05:00:22;;;;;;;6.57;1.33;;;;;;;17.20;38.05;97834.81;5015897;28;20061;-82
2023/12/02 05:03:08;;;;;;;7.15;1.52;;;;;;;17.60;36.81;97850.22;5022674;28;20400;-83
2023/12/02 05:05:53;;;;;;;7.57;1.77;;;;;;;17.42;37.49;97847.44;5016766;28;20053;-82
2023/12/02 05:08:40;;;;;;;7.43;1.63;;;;;;;17.35;37.61;97842.50;5016652;28;20064;-82
2023/12/02 05:11:27;;;;;;;9.25;1.90;;;;;;;17.23;38.46;97831.53;5016015;28;20423;-81
2023/12/02 05:14:12;;;;;;;15.25;1.90;;;;;;;17.33;37.97;97809.03;5022119;28;20057;-83
2023/12/02 05:16:59;;;;;;;6.60;1.30;;;;;;;17.38;37.24;97800.03;5016309;28;20045;-83
2023/12/02 05:19:46;;;;;;;8.25;1.88;;;;;;;17.27;37.77;97786.88;5022210;28;20060;-82
2023/12/02 05:22:33;;;;;;;7.30;1.90;;;;;;;17.18;38.51;97779.88;5018628;28;20052;-82
2023/12/02 05:25:19;;;;;;;9.05;1.80;;;;;;;17.02;39.00;97774.91;5029303;28;20072;-82
2023/12/02 05:28:05;;;;;;;7.32;1.95;;;;;;;17.06;38.44;97765.13;5008438;28;20056;-83
2023/12/02 05:30:50;;;;;;;10.52;2.00;;;;;;;17.06;38.18;97791.97;5001701;28;20048;-84
2023/12/02 05:33:41;;;;;;;9.30;1.67;;;;;;;17.04;38.21;97788.78;5008544;28;20117;-83
2023/12/02 05:36:26;;;;;;;6.13;1.70;;;;;;;17.57;36.72;97804.06;5015682;28;20404;-80
2023/12/02 05:39:14;;;;;;;13.77;4.57;;;;;;;17.68;36.55;97820.72;5010059;28;20048;-83
2023/12/02 05:41:59;;;;;;;17.48;5.70;;;;;;;17.51;37.03;97839.41;5032751;28;20117;-85
2023/12/02 05:44:44;;;;;;;115.63;50.25;;;;;;;17.47;36.95;97833.88;5026308;28;20032;-83
2023/12/02 05:47:30;;;;;;;52.80;25.50;;;;;;;17.29;37.76;97830.31;5008619;28;20388;-84
2023/12/02 05:50:16;;;;;;;28.65;13.68;;;;;;;17.62;35.83;97819.25;4994222;28;20530;-83
2023/12/02 05:53:04;;;;;;;39.80;18.83;;;;;;;17.66;36.73;97822.91;5001062;28;20360;-83
2023/12/02 05:55:50;;;;;;;16.42;5.03;;;;;;;17.79;36.71;97840.84;5005920;28;20057;-82
2023/12/02 05:58:35;;;;;;;45.88;25.58;;;;;;;17.64;36.59;97818.94;5007054;28;20060;-81
2023/12/02 06:01:22;;;;;;;19.67;5.40;;;;;;;17.56;36.93;97823.97;5007196;28;20100;-82
2023/12/02 06:04:07;;;;;;;90.05;41.25;;;;;;;17.40;37.31;97808.59;5014848;28;20057;-83
2023/12/02 06:06:52;;;;;;;22.52;9.45;;;;;;;17.29;37.58;97813.41;5000744;28;20048;-83
2023/12/02 06:09:44;;;;;;;22.70;6.43;;;;;;;17.13;38.65;97804.16;5014428;28;20404;-82
2023/12/02 06:12:29;;;;;;;18.48;4.60;;;;;;;17.20;38.61;97816.03;5007312;28;20503;-82
2023/12/02 06:15:15;;;;;;;10.70;3.22;;;;;;;17.33;38.27;97819.75;5020615;28;20045;-83
2023/12/02 06:18:00;;;;;;;16.15;5.15;;;;;;;17.05;38.69;97811.84;5014333;28;20052;-83
2023/12/02 06:20:46;;;;;;;15.15;4.97;;;;;;;17.16;38.05;97825.03;5007147;28;20060;-84
2023/12/02 06:23:32;;;;;;;14.98;4.78;;;;;;;17.14;38.77;97828.00;5015233;28;20052;-85
2023/12/02 06:26:17;;;;;;;12.88;4.07;;;;;;;17.17;38.32;97843.50;5006797;28;20052;-84
2023/12/02 06:29:04;;;;;;;16.80;5.50;;;;;;;17.09;38.51;97836.19;4993063;28;20391;-84
2023/12/02 06:31:50;;;;;;;23.48;8.27;;;;;;;17.22;37.46;97843.38;4993273;28;20060;-82
2023/12/02 06:34:35;;;;;;;14.20;5.82;;;;;;;17.28;37.66;97852.09;5006663;28;20056;-84
2023/12/02 06:37:20;;;;;;;13.55;2.75;;;;;;;17.41;36.97;97845.84;5007252;28;20061;-83
2023/12/02 06:40:06;;;;;;;12.95;3.25;;;;;;;17.38;36.99;97848.38;5007116;28;20053;-83
2023/12/02 06:42:51;;;;;;;17.90;3.20;;;;;;;17.49;36.75;97826.31;5020131;28;20052;-82
2023/12/02 06:45:37;;;;;;;12.18;2.28;;;;;;;17.72;36.46;97828.94;5013692;28;20053;-83
2023/12/02 06:48:23;;;;;;;17.15;5.13;;;;;;;17.82;36.32;97836.75;5027003;28;20100;-83
2023/12/02 06:51:09;;;;;;;13.07;5.20;;;;;;;17.79;36.44;97821.25;5006579;28;20391;-83
2023/12/02 06:53:58;;;;;;;17.23;6.30;;;;;;;18.24;35.96;97811.09;5006115;28;20053;-82
2023/12/02 06:56:43;;;;;;;10.73;3.05;;;;;;;18.35;35.51;97808.88;5002371;28;20491;-82
2023/12/02 06:59:29;;;;;;;12.52;3.72;;;;;;;18.47;34.66;97816.34;5013101;28;20045;-83
2023/12/02 07:02:14;;;;;;;16.20;2.45;;;;;;;18.34;34.58;97826.13;5014427;28;20057;-82
2023/12/02 07:05:02;;;;;;;12.65;2.05;;;;;;;18.39;34.58;97823.28;5005978;28;20053;-81
2023/12/02 07:07:48;;;;;;;15.68;9.40;;;;;;;18.51;33.93;97798.47;5006185;28;20113;-81
2023/12/02 07:10:33;;;;;;;12.02;3.25;;;;;;;18.58;34.34;97808.75;5007976;28;20515;-84
2023/12/02 07:13:20;;;;;;;12.50;3.15;;;;;;;18.83;33.29;97789.13;5021239;28;20053;-83
2023/12/02 07:16:07;;;;;;;10.70;3.40;;;;;;;18.69;34.40;97805.44;5014614;28;20057;-83
2023/12/02 07:18:53;;;;;;;14.30;2.47;;;;;;;18.78;33.86;97791.22;5016611;28;20502;-85
2023/12/02 07:21:39;;;;;;;13.60;3.67;;;;;;;18.82;34.39;97798.31;5019882;28;20053;-82
2023/12/02 07:24:26;;;;;;;21.15;5.40;;;;;;;18.78;33.92;97788.53;5014566;28;20498;-84
2023/12/02 07:27:12;;;;;;;16.67;3.03;;;;;;;18.88;33.68;97815.91;5013934;28;20048;-83
2023/12/02 07:29:58;;;;;;;13.80;3.30;;;;;;;19.00;32.98;97803.69;5012929;28;20052;-85
2023/12/02 07:32:46;;;;;;;14.63;4.03;;;;;;;18.97;34.03;97810.50;5012938;28;20053;-81
2023/12/02 07:35:31;;;;;;;17.65;4.57;;;;;;;18.93;34.59;97807.66;5022368;28;20056;-80
2023/12/02 07:38:18;;;;;;;11.63;3.38;;;;;;;18.91;34.02;97763.34;5019781;28;20053;-79
2023/12/02 07:41:04;;;;;;;12.90;2.40;;;;;;;19.08;33.16;97767.88;5019536;28;20049;-79
2023/12/02 07:43:49;;;;;;;9.32;3.05;;;;;;;19.17;33.34;97771.34;5013485;28;20069;-80
2023/12/02 07:46:36;;;;;;;16.85;3.10;;;;;;;19.23;33.24;97747.72;5013143;28;20057;-81
2023/12/02 07:49:22;;;;;;;13.18;3.53;;;;;;;19.12;34.10;97737.31;5013671;28;20045;-83
2023/12/02 07:52:08;;;;;;;13.48;3.58;;;;;;;19.15;33.71;97763.59;5016049;28;20048;-81
2023/12/02 07:54:53;;;;;;;16.10;2.63;;;;;;;19.25;33.91;97769.75;5014639;28;20057;-83
2023/12/02 07:57:39;;;;;;;17.90;2.83;;;;;;;19.34;33.91;97765.91;5013503;28;20052;-78
2023/12/02 08:00:25;;;;;;;10.93;2.92;;;;;;;19.51;33.25;97770.44;5014200;28;20053;-83
2023/12/02 08:03:10;;;;;;;18.65;5.30;;;;;;;19.62;33.77;97768.97;5012699;28;20408;-81
2023/12/02 08:05:56;;;;;;;18.00;6.57;;;;;;;19.59;33.84;97755.34;5013858;28;20060;-82
2023/12/02 08:08:41;;;;;;;15.32;4.05;;;;;;;19.88;33.21;97758.06;5013504;28;20049;-80
2023/12/02 08:11:28;;;;;;;14.48;3.30;;;;;;;19.98;32.51;97756.91;5013673;28;20056;-81
2023/12/02 08:14:12;;;;;;;19.08;4.00;;;;;;;20.17;32.97;97759.16;5020927;28;20045;-83
2023/12/02 08:16:59;;;;;;;14.65;4.40;;;;;;;19.98;33.32;97750.72;5013747;28;20068;-82
2023/12/02 08:19:45;;;;;;;19.80;5.10;;;;;;;19.94;32.93;97747.13;5013558;28;20400;-83
2023/12/02 08:22:31;;;;;;;18.73;4.78;;;;;;;19.88;33.42;97722.25;5026481;28;20056;-82
2023/12/02 08:25:18;;;;;;;17.88;4.07;;;;;;;19.88;33.47;97754.59;5015126;28;20060;-87
2023/12/02 08:28:05;;;;;;;14.75;2.08;;;;;;;19.98;32.82;97773.09;5012771;28;20048;-79
2023/12/02 08:30:51;;;;;;;14.95;4.18;;;;;;;20.05;33.24;97762.56;5012523;28;20049;-79
2023/12/02 08:33:37;;;;;;;15.88;5.45;;;;;;;20.02;33.74;97765.13;5014013;28;20053;-82
2023/12/02 08:36:22;;;;;;;9.82;2.80;;;;;;;20.18;31.98;97752.66;5036232;28;20463;-82
2023/12/02 08:39:07;;;;;;;16.75;5.20;;;;;;;20.20;33.09;97760.41;5019664;28;20056;-78
2023/12/02 08:41:53;;;;;;;13.15;4.03;;;;;;;20.08;33.12;97755.72;5018569;28;20053;-81
2023/12/02 08:44:58;;;;;;;14.30;5.63;;;;;;;20.03;32.77;97762.13;5017830;28;20049;-80
2023/12/02 08:47:43;;;;;;;18.40;5.35;;;;;;;20.06;32.73;97772.25;5017006;28;20045;-80
2023/12/02 08:50:29;;;;;;;15.48;3.78;;;;;;;20.11;33.49;97734.28;5016790;28;20423;-81
2023/12/02 08:53:15;;;;;;;14.95;4.55;;;;;;;20.25;32.65;97742.13;5017291;28;20056;-79
2023/12/02 08:56:02;;;;;;;17.63;4.68;;;;;;;20.45;32.39;97723.56;5015866;28;20057;-79
2023/12/02 08:58:47;;;;;;;17.27;4.22;;;;;;;20.54;31.66;97724.31;5016305;28;20510;-79
2023/12/02 09:01:34;;;;;;;18.92;3.25;;;;;;;20.71;32.31;97715.25;5016380;28;20053;-79
2023/12/02 09:04:19;;;;;;;18.90;5.15;;;;;;;21.14;31.13;97716.72;5007335;28;20052;-80
2023/12/02 09:07:06;;;;;;;19.38;4.28;;;;;;;21.35;31.11;97733.66;4993532;28;20117;-80
2023/12/02 09:09:52;;;;;;;16.30;3.90;;;;;;;21.44;30.57;97722.75;5029606;28;20033;-81
2023/12/02 09:12:38;;;;;;;18.85;6.50;;;;;;;21.65;30.21;97733.44;5019039;28;20065;-81
2023/12/02 09:15:23;;;;;;;10.27;3.30;;;;;;;21.59;30.36;97732.88;5016906;28;20056;-81
2023/12/02 09:18:29;;;;;;;10.63;3.00;;;;;;;21.73;30.30;97735.25;5016267;28;20049;-81
2023/12/02 09:21:31;;;;;;;14.67;2.37;;;;;;;21.84;30.30;97735.56;4988520;28;20407;-81
2023/12/02 09:24:37;;;;;;;13.00;3.90;;;;;;;22.04;30.23;97729.22;5002171;28;20053;-84
2023/12/02 09:27:47;;;;;;;14.63;3.33;;;;;;;22.15;30.10;97730.31;5015453;28;20403;-84
2023/12/02 09:30:50;;;;;;;15.70;3.00;;;;;;;22.22;30.23;97721.66;5016032;28;20388;-81
2023/12/02 09:33:37;;;;;;;11.85;3.10;;;;;;;22.16;30.86;97715.72;5028584;28;20057;-84
2023/12/02 09:36:39;;;;;;;15.60;4.10;;;;;;;22.23;30.20;97709.72;5021116;28;20068;-84
2023/12/02 09:39:25;;;;;;;12.63;2.83;;;;;;;22.27;29.41;97742.28;5014368;28;20053;-84
2023/12/02 09:42:11;;;;;;;14.90;3.15;;;;;;;22.17;29.84;97735.44;5016112;28;20045;-84
2023/12/02 09:44:59;;;;;;;14.93;2.45;;;;;;;22.01;30.03;97726.41;5015050;28;20068;-85
2023/12/02 09:47:55;;;;;;;12.80;2.67;;;;;;;22.14;30.40;97722.56;5005530;28;20128;-83
2023/12/02 09:51:05;;;;;;;13.05;2.63;;;;;;;22.10;29.67;97714.34;5013447;28;20048;-85
2023/12/02 09:53:59;;;;;;;12.65;2.75;;;;;;;21.97;29.94;97707.38;5020341;28;20408;-85
2023/12/02 09:56:55;;;;;;;12.93;3.53;;;;;;;22.11;30.07;97691.56;5014107;28;20073;-82
2023/12/02 10:00:12;;;;;;;18.70;4.13;;;;;;;22.16;29.71;97685.94;5014587;28;20061;-84
2023/12/02 10:03:03;;;;;;;21.63;3.03;;;;;;;22.36;29.40;97680.69;5014471;28;20060;-84
2023/12/02 10:06:07;;;;;;;13.13;3.70;;;;;;;22.38;30.17;97665.69;5015347;28;20057;-83
2023/12/02 10:08:52;;;;;;;18.10;4.28;;;;;;;22.39;29.77;97671.88;5015408;28;20053;-86
2023/12/02 10:12:05;;;;;;;19.35;2.90;;;;;;;22.28;29.33;97657.25;5015894;28;20156;-85
2023/12/02 10:15:05;;;;;;;15.52;3.58;;;;;;;22.53;30.08;97668.75;5007944;28;20049;-85
2023/12/02 10:17:57;;;;;;;22.02;4.82;;;;;;;22.55;29.38;97675.41;5020490;28;20049;-85
2023/12/02 10:20:43;;;;;;;18.73;4.15;;;;;;;22.50;29.41;97648.59;5001303;28;20049;-83
2023/12/02 10:23:34;;;;;;;18.30;3.13;;;;;;;22.59;29.16;97667.38;5020816;28;20049;-83
2023/12/02 10:26:32;;;;;;;18.38;4.00;;;;;;;22.75;29.42;97670.91;5021068;28;20518;-81
2023/12/02 10:29:24;;;;;;;20.58;2.80;;;;;;;22.62;28.88;97639.63;5015011;28;20068;-83
2023/12/02 10:32:18;;;;;;;24.08;5.90;;;;;;;22.79;30.05;97649.34;5021922;28;20053;-85
2023/12/02 10:35:03;;;;;;;;;;;;;;;22.67;29.61;97652.91;5029095;28;20076;-86
2023/12/02 10:38:20;;;;;;;14.80;3.15;;;;;;;22.78;28.82;97643.16;5023251;28;19914;-86
2023/12/02 10:41:19;;;;;;;18.73;5.32;;;;;;;22.81;29.84;97628.09;5023164;28;20049;-85
2023/12/02 10:44:07;;;;;;;21.25;4.05;;;;;;;23.00;29.70;97635.56;5021635;28;20049;-83
2023/12/02 10:46:54;;;;;;;19.13;4.78;;;;;;;22.90;30.23;97619.81;5013944;28;20052;-84
2023/12/02 10:49:40;;;;;;;17.05;3.78;;;;;;;22.75;30.76;97621.38;5021848;28;20388;-83
2023/12/02 10:52:28;;;;;;;14.52;3.25;;;;;;;22.70;29.69;97608.88;5007090;28;20045;-85
2023/12/02 10:55:13;;;;;;;20.73;4.45;;;;;;;22.52;30.18;97591.41;5010551;28;20053;-84
2023/12/02 10:58:00;;;;;;;16.63;3.15;;;;;;;22.53;31.08;97611.91;5000570;28;20045;-87
2023/12/02 11:00:47;;;;;;;15.15;3.33;;;;;;;22.49;30.34;97613.75;5013826;28;20053;-87
2023/12/02 11:03:43;;;;;;;18.83;4.25;;;;;;;22.68;30.59;97616.56;5006245;28;20045;-83
2023/12/02 11:06:32;;;;;;;19.55;3.88;;;;;;;22.72;29.66;97584.16;5020392;28;20491;-83
2023/12/02 11:09:24;;;;;;;22.92;4.70;;;;;;;22.74;29.99;97571.06;5013770;28;20052;-84
2023/12/02 11:12:10;;;;;;;18.50;3.72;;;;;;;22.85;30.43;97572.13;5013460;28;20053;-83
2023/12/02 11:15:03;;;;;;;14.75;3.35;;;;;;;22.97;30.63;97568.53;5014296;28;20049;-82
2023/12/02 11:17:59;;;;;;;21.33;4.88;;;;;;;22.99;30.40;97556.22;5006661;28;20388;-83
2023/12/02 11:21:01;;;;;;;17.90;2.90;;;;;;;22.94;29.77;97553.81;5027609;28;20052;-83
2023/12/02 11:23:51;;;;;;;20.88;3.15;;;;;;;23.08;28.91;97547.91;5015597;28;20053;-85
2023/12/02 11:26:41;;;;;;;14.52;3.30;;;;;;;23.12;29.73;97537.16;4992598;28;20052;-82
2023/12/02 11:29:41;;;;;;;18.90;2.83;;;;;;;23.18;29.95;97536.53;5013631;28;20068;-82
2023/12/02 11:32:40;;;;;;;17.48;3.60;;;;;;;23.33;30.02;97548.47;5022650;28;20048;-84
2023/12/02 11:35:33;;;;;;;15.73;3.15;;;;;;;23.50;29.66;97536.41;5020100;28;20057;-83
2023/12/02 11:38:19;;;;;;;17.95;3.33;;;;;;;23.58;28.73;97534.66;5024201;28;20049;-81
2023/12/02 11:41:34;;;;;;;23.70;4.47;;;;;;;23.74;29.24;97535.41;5026927;28;20053;-83
2023/12/02 11:44:39;;;;;;;21.47;3.30;;;;;;;23.67;28.04;97525.16;5013541;28;20056;-82
2023/12/02 11:47:27;;;;;;;21.15;3.10;;;;;;;23.72;27.82;97521.41;5012960;28;20048;-83
2023/12/02 11:50:31;;;;;;;21.80;3.63;;;;;;;23.89;26.61;97518.25;5019035;28;20069;-82
2023/12/02 11:53:34;;;;;;;18.33;2.75;;;;;;;24.13;27.61;97522.59;5013919;28;20426;-82
2023/12/02 11:56:21;;;;;;;21.55;3.35;;;;;;;24.32;27.41;97521.75;5013150;28;20094;-75
2023/12/02 11:59:17;;;;;;;14.63;2.85;;;;;;;24.42;25.93;97515.75;5012988;28;20057;-82
2023/12/02 12:02:13;;;;;;;19.55;3.63;;;;;;;24.58;25.34;97506.69;5026641;28;20044;-83
2023/12/02 12:05:27;;;;;;;24.75;3.15;;;;;;;24.59;25.37;97521.84;5012346;28;20055;-80
2023/12/02 12:08:18;;;;;;;21.05;3.67;;;;;;;24.30;25.48;97515.91;5013209;28;20395;-81
2023/12/02 12:11:03;;;;;;;24.73;3.33;;;;;;;24.16;25.73;97519.16;5013072;28;20065;-83
2023/12/02 12:13:49;;;;;;;17.23;2.95;;;;;;;24.33;26.34;97533.41;5013243;28;20057;-81
2023/12/02 12:16:34;;;;;;;21.42;2.97;;;;;;;24.23;25.39;97519.28;5015178;28;20506;-82
2023/12/02 12:19:20;;;;;;;17.90;3.70;;;;;;;24.10;25.25;97527.94;5016998;28;20046;-79
2023/12/02 12:22:10;;;;;;;20.85;3.10;;;;;;;23.96;25.60;97523.81;5016571;28;20052;-81
2023/12/02 12:24:55;;;;;;;15.82;3.10;;;;;;;23.74;26.50;97517.19;5017140;28;20069;-81
2023/12/02 12:27:41;;;;;;;15.40;4.25;;;;;;;23.61;27.14;97520.41;5015950;28;20410;-83
2023/12/02 12:30:26;;;;;;;20.40;3.22;;;;;;;23.61;26.83;97515.75;5015774;28;20172;-80
2023/12/02 12:33:14;;;;;;;22.30;4.03;;;;;;;23.72;26.16;97521.41;5017222;28;20056;-82
2023/12/02 12:36:01;;;;;;;21.50;2.90;;;;;;;23.66;27.81;97509.25;5017665;28;20049;-82
2023/12/02 12:38:48;;;;;;;21.67;3.60;;;;;;;23.52;27.54;97528.72;5015732;28;20118;-81
2023/12/02 12:41:38;;;;;;;20.17;2.75;;;;;;;23.56;27.37;97505.19;5016733;28;20060;-82
2023/12/02 12:44:24;;;;;;;21.25;3.63;;;;;;;23.44;27.07;97508.84;5016719;28;20060;-83
2023/12/02 12:47:11;;;;;;;19.85;3.53;;;;;;;23.44;27.37;97506.13;5022062;28;20052;-84
2023/12/02 12:50:02;;;;;;;21.33;3.88;;;;;;;23.45;27.90;97520.47;5022711;28;20388;-85
2023/12/02 12:52:52;;;;;;;17.75;3.20;;;;;;;23.45;27.26;97501.47;5022158;28;20530;-83
2023/12/02 12:55:44;;;;;;;20.33;3.00;;;;;;;23.48;26.82;97490.72;5015833;28;20060;-83
2023/12/02 12:58:30;;;;;;;22.15;3.15;;;;;;;23.51;26.65;97498.13;5009068;28;20073;-87
2023/12/02 13:01:16;;;;;;;19.73;3.70;;;;;;;23.43;24.94;97471.22;5009317;28;20056;-82
2023/12/02 13:04:30;;;;;;;14.55;2.50;;;;;;;23.60;26.28;97478.94;4995021;28;20068;-82